sensor_id;sensor_type;location;lat;lon;timestamp;P1;durP1;ratioP1;P2;durP2;ratioP2
64873;SDS011;51367;45.204;38.576;2022-12-20T00:01:28;4.80;;;2.20;;
64873;SDS011;51367;45.204;38.576;2022-12-20T00:03:57;1.55;;;1.55;;
64873;SDS011;51367;45.204;38.576;2022-12-20T00:06:24;1.73;;;1.63;;
64873;SDS011;51367;45.204;38.576;2022-12-20T00:08:54;2.65;;;1.98;;
64873;SDS011;51367;45.204;38.576;2022-12-20T00:11:22;2.13;;;2.03;;
64873;SDS011;51367;45.204;38.576;2022-12-20T00:13:49;1.63;;;1.52;;
64873;SDS011;51367;45.204;38.576;2022-12-20T00:16:16;1.10;;;1.10;;
64873;SDS011;51367;45.204;38.576;2022-12-20T00:18:49;2.13;;;1.92;;
64873;SDS011;51367;45.204;38.576;2022-12-20T00:21:16;4.32;;;1.40;;
64873;SDS011;51367;45.204;38.576;2022-12-20T00:23:42;0.63;;;0.63;;
64873;SDS011;51367;45.204;38.576;2022-12-20T00:26:09;0.60;;;0.60;;
64873;SDS011;51367;45.204;38.576;2022-12-20T00:28:42;1.08;;;1.08;;
64873;SDS011;51367;45.204;38.576;2022-12-20T00:31:10;0.90;;;0.57;;
64873;SDS011;51367;45.204;38.576;2022-12-20T00:33:38;0.77;;;0.77;;
64873;SDS011;51367;45.204;38.576;2022-12-20T00:36:07;2.00;;;1.83;;
64873;SDS011;51367;45.204;38.576;2022-12-20T00:38:33;4.22;;;3.83;;
64873;SDS011;51367;45.204;38.576;2022-12-20T00:43:30;1.40;;;1.38;;
64873;SDS011;51367;45.204;38.576;2022-12-20T00:45:57;1.52;;;1.48;;
64873;SDS011;51367;45.204;38.576;2022-12-20T00:48:23;1.30;;;1.30;;
64873;SDS011;51367;45.204;38.576;2022-12-20T00:50:50;1.83;;;1.63;;
64873;SDS011;51367;45.204;38.576;2022-12-20T00:53:16;3.08;;;2.65;;
64873;SDS011;51367;45.204;38.576;2022-12-20T00:55:46;2.10;;;2.00;;
64873;SDS011;51367;45.204;38.576;2022-12-20T00:58:12;1.35;;;1.33;;
64873;SDS011;51367;45.204;38.576;2022-12-20T01:00:38;1.63;;;1.58;;
64873;SDS011;51367;45.204;38.576;2022-12-20T01:03:05;1.98;;;1.55;;
64873;SDS011;51367;45.204;38.576;2022-12-20T01:05:31;2.53;;;2.33;;
64873;SDS011;51367;45.204;38.576;2022-12-20T01:07:58;0.73;;;0.73;;
64873;SDS011;51367;45.204;38.576;2022-12-20T01:10:24;1.98;;;1.20;;
64873;SDS011;51367;45.204;38.576;2022-12-20T01:12:50;1.30;;;1.25;;
64873;SDS011;51367;45.204;38.576;2022-12-20T01:15:16;1.65;;;1.58;;
64873;SDS011;51367;45.204;38.576;2022-12-20T01:17:42;0.55;;;0.55;;
64873;SDS011;51367;45.204;38.576;2022-12-20T01:20:09;6.60;;;2.15;;
64873;SDS011;51367;45.204;38.576;2022-12-20T01:22:35;0.68;;;0.68;;
64873;SDS011;51367;45.204;38.576;2022-12-20T01:32:35;1.85;;;1.65;;
64873;SDS011;51367;45.204;38.576;2022-12-20T01:35:02;2.70;;;1.40;;
64873;SDS011;51367;45.204;38.576;2022-12-20T01:37:28;1.40;;;1.35;;
64873;SDS011;51367;45.204;38.576;2022-12-20T01:39:54;1.10;;;0.85;;
64873;SDS011;51367;45.204;38.576;2022-12-20T01:42:20;2.00;;;1.90;;
64873;SDS011;51367;45.204;38.576;2022-12-20T01:44:50;6.43;;;2.15;;
64873;SDS011;51367;45.204;38.576;2022-12-20T01:47:19;1.20;;;1.00;;
64873;SDS011;51367;45.204;38.576;2022-12-20T01:49:47;1.60;;;1.50;;
64873;SDS011;51367;45.204;38.576;2022-12-20T01:54:47;2.45;;;2.35;;
64873;SDS011;51367;45.204;38.576;2022-12-20T01:57:28;1.55;;;1.50;;
64873;SDS011;51367;45.204;38.576;2022-12-20T01:59:59;2.25;;;2.15;;
64873;SDS011;51367;45.204;38.576;2022-12-20T02:02:25;0.80;;;0.80;;
64873;SDS011;51367;45.204;38.576;2022-12-20T02:04:51;1.20;;;1.17;;
64873;SDS011;51367;45.204;38.576;2022-12-20T02:07:19;2.72;;;2.38;;
64873;SDS011;51367;45.204;38.576;2022-12-20T02:09:49;2.90;;;2.50;;
64873;SDS011;51367;45.204;38.576;2022-12-20T02:12:26;3.53;;;2.10;;
64873;SDS011;51367;45.204;38.576;2022-12-20T02:15:05;2.40;;;2.30;;
64873;SDS011;51367;45.204;38.576;2022-12-20T02:23:49;1.67;;;1.58;;
64873;SDS011;51367;45.204;38.576;2022-12-20T02:31:47;2.55;;;2.45;;
64873;SDS011;51367;45.204;38.576;2022-12-20T02:34:21;2.17;;;1.95;;
64873;SDS011;51367;45.204;38.576;2022-12-20T02:36:51;2.80;;;2.55;;
64873;SDS011;51367;45.204;38.576;2022-12-20T02:39:18;1.65;;;1.38;;
64873;SDS011;51367;45.204;38.576;2022-12-20T02:41:47;1.10;;;1.10;;
64873;SDS011;51367;45.204;38.576;2022-12-20T02:44:21;2.95;;;2.75;;
64873;SDS011;51367;45.204;38.576;2022-12-20T02:47:11;1.73;;;1.63;;
64873;SDS011;51367;45.204;38.576;2022-12-20T02:49:43;1.70;;;1.60;;
64873;SDS011;51367;45.204;38.576;2022-12-20T02:52:11;0.63;;;0.63;;
64873;SDS011;51367;45.204;38.576;2022-12-20T02:54:39;1.38;;;1.27;;
64873;SDS011;51367;45.204;38.576;2022-12-20T03:00:04;2.60;;;2.40;;
64873;SDS011;51367;45.204;38.576;2022-12-20T03:02:33;1.80;;;1.70;;
64873;SDS011;51367;45.204;38.576;2022-12-20T03:05:30;3.65;;;2.75;;
64873;SDS011;51367;45.204;38.576;2022-12-20T03:07:59;0.75;;;0.75;;
64873;SDS011;51367;45.204;38.576;2022-12-20T03:10:25;5.93;;;1.95;;
64873;SDS011;51367;45.204;38.576;2022-12-20T03:12:51;2.03;;;1.92;;
64873;SDS011;51367;45.204;38.576;2022-12-20T03:15:17;2.70;;;2.45;;
64873;SDS011;51367;45.204;38.576;2022-12-20T03:17:45;2.80;;;2.63;;
64873;SDS011;51367;45.204;38.576;2022-12-20T03:20:11;2.42;;;2.22;;
64873;SDS011;51367;45.204;38.576;2022-12-20T03:22:37;2.00;;;1.52;;
64873;SDS011;51367;45.204;38.576;2022-12-20T03:25:03;1.63;;;1.63;;
64873;SDS011;51367;45.204;38.576;2022-12-20T03:27:31;2.38;;;2.00;;
64873;SDS011;51367;45.204;38.576;2022-12-20T03:29:59;4.95;;;2.30;;
64873;SDS011;51367;45.204;38.576;2022-12-20T03:32:26;1.67;;;1.58;;
64873;SDS011;51367;45.204;38.576;2022-12-20T03:34:54;0.90;;;0.75;;
64873;SDS011;51367;45.204;38.576;2022-12-20T03:37:27;1.77;;;1.67;;
64873;SDS011;51367;45.204;38.576;2022-12-20T03:39:54;2.88;;;2.60;;
64873;SDS011;51367;45.204;38.576;2022-12-20T03:42:20;0.68;;;0.68;;
64873;SDS011;51367;45.204;38.576;2022-12-20T03:44:46;1.88;;;1.77;;
64873;SDS011;51367;45.204;38.576;2022-12-20T03:47:12;0.17;;;0.17;;
64873;SDS011;51367;45.204;38.576;2022-12-20T03:49:38;1.85;;;1.75;;
64873;SDS011;51367;45.204;38.576;2022-12-20T03:52:04;1.63;;;1.52;;
64873;SDS011;51367;45.204;38.576;2022-12-20T03:54:30;2.03;;;1.92;;
64873;SDS011;51367;45.204;38.576;2022-12-20T03:57:05;4.53;;;3.08;;
64873;SDS011;51367;45.204;38.576;2022-12-20T03:59:32;2.45;;;1.67;;
64873;SDS011;51367;45.204;38.576;2022-12-20T04:01:58;1.98;;;1.85;;
64873;SDS011;51367;45.204;38.576;2022-12-20T04:04:27;3.63;;;1.63;;
64873;SDS011;51367;45.204;38.576;2022-12-20T04:06:53;3.13;;;2.20;;
64873;SDS011;51367;45.204;38.576;2022-12-20T04:09:19;4.75;;;2.05;;
64873;SDS011;51367;45.204;38.576;2022-12-20T04:11:50;0.90;;;0.90;;
64873;SDS011;51367;45.204;38.576;2022-12-20T04:14:16;1.00;;;1.00;;
64873;SDS011;51367;45.204;38.576;2022-12-20T04:16:42;2.40;;;2.20;;
64873;SDS011;51367;45.204;38.576;2022-12-20T04:19:09;1.55;;;1.45;;
64873;SDS011;51367;45.204;38.576;2022-12-20T04:21:40;1.77;;;1.67;;
64873;SDS011;51367;45.204;38.576;2022-12-20T04:24:07;2.55;;;2.35;;
64873;SDS011;51367;45.204;38.576;2022-12-20T04:26:40;3.85;;;1.95;;
64873;SDS011;51367;45.204;38.576;2022-12-20T04:29:07;1.20;;;1.10;;
64873;SDS011;51367;45.204;38.576;2022-12-20T04:31:33;0.40;;;0.40;;
64873;SDS011;51367;45.204;38.576;2022-12-20T04:33:59;1.08;;;1.02;;
64873;SDS011;51367;45.204;38.576;2022-12-20T04:36:25;1.80;;;1.70;;
64873;SDS011;51367;45.204;38.576;2022-12-20T04:38:53;0.95;;;0.95;;
64873;SDS011;51367;45.204;38.576;2022-12-20T04:41:19;0.17;;;0.17;;
64873;SDS011;51367;45.204;38.576;2022-12-20T04:43:55;1.45;;;0.95;;
64873;SDS011;51367;45.204;38.576;2022-12-20T04:46:25;1.65;;;1.55;;
64873;SDS011;51367;45.204;38.576;2022-12-20T04:48:54;1.30;;;1.20;;
64873;SDS011;51367;45.204;38.576;2022-12-20T04:51:21;1.88;;;1.73;;
64873;SDS011;51367;45.204;38.576;2022-12-20T04:53:47;1.75;;;1.65;;
64873;SDS011;51367;45.204;38.576;2022-12-20T04:56:23;0.85;;;0.85;;
64873;SDS011;51367;45.204;38.576;2022-12-20T04:58:55;0.90;;;0.90;;
64873;SDS011;51367;45.204;38.576;2022-12-20T05:01:23;0.40;;;0.40;;
64873;SDS011;51367;45.204;38.576;2022-12-20T05:03:50;6.68;;;1.08;;
64873;SDS011;51367;45.204;38.576;2022-12-20T05:06:17;2.72;;;1.33;;
64873;SDS011;51367;45.204;38.576;2022-12-20T05:08:43;0.63;;;0.63;;
64873;SDS011;51367;45.204;38.576;2022-12-20T05:11:09;1.33;;;0.40;;
64873;SDS011;51367;45.204;38.576;2022-12-20T05:13:36;0.95;;;0.95;;
64873;SDS011;51367;45.204;38.576;2022-12-20T05:16:02;1.25;;;1.17;;
64873;SDS011;51367;45.204;38.576;2022-12-20T05:18:32;0.30;;;0.30;;
64873;SDS011;51367;45.204;38.576;2022-12-20T05:21:01;3.88;;;2.10;;
64873;SDS011;51367;45.204;38.576;2022-12-20T05:23:49;2.17;;;1.98;;
64873;SDS011;51367;45.204;38.576;2022-12-20T05:26:56;1.33;;;1.23;;
64873;SDS011;51367;45.204;38.576;2022-12-20T05:29:23;1.45;;;1.45;;
64873;SDS011;51367;45.204;38.576;2022-12-20T05:31:49;2.30;;;1.88;;
64873;SDS011;51367;45.204;38.576;2022-12-20T05:34:15;0.60;;;0.60;;
64873;SDS011;51367;45.204;38.576;2022-12-20T05:36:46;1.10;;;1.10;;
64873;SDS011;51367;45.204;38.576;2022-12-20T05:39:13;1.15;;;1.10;;
64873;SDS011;51367;45.204;38.576;2022-12-20T05:41:42;1.38;;;1.38;;
64873;SDS011;51367;45.204;38.576;2022-12-20T05:44:09;1.88;;;1.77;;
64873;SDS011;51367;45.204;38.576;2022-12-20T05:46:38;2.03;;;1.67;;
64873;SDS011;51367;45.204;38.576;2022-12-20T05:49:09;3.90;;;2.05;;
64873;SDS011;51367;45.204;38.576;2022-12-20T05:51:36;0.55;;;0.55;;
64873;SDS011;51367;45.204;38.576;2022-12-20T05:54:14;0.60;;;0.60;;
64873;SDS011;51367;45.204;38.576;2022-12-20T05:56:50;1.48;;;1.42;;
64873;SDS011;51367;45.204;38.576;2022-12-20T05:59:21;2.40;;;2.22;;
64873;SDS011;51367;45.204;38.576;2022-12-20T06:01:47;4.03;;;3.20;;
64873;SDS011;51367;45.204;38.576;2022-12-20T06:04:13;6.43;;;4.15;;
64873;SDS011;51367;45.204;38.576;2022-12-20T06:06:40;0.60;;;0.60;;
64873;SDS011;51367;45.204;38.576;2022-12-20T06:09:08;1.45;;;1.38;;
64873;SDS011;51367;45.204;38.576;2022-12-20T06:11:46;4.70;;;3.10;;
64873;SDS011;51367;45.204;38.576;2022-12-20T06:14:13;0.85;;;0.85;;
64873;SDS011;51367;45.204;38.576;2022-12-20T06:16:44;2.20;;;2.10;;
64873;SDS011;51367;45.204;38.576;2022-12-20T06:19:11;2.88;;;2.60;;
64873;SDS011;51367;45.204;38.576;2022-12-20T06:21:37;4.78;;;2.75;;
64873;SDS011;51367;45.204;38.576;2022-12-20T06:24:04;2.28;;;2.10;;
64873;SDS011;51367;45.204;38.576;2022-12-20T06:26:31;2.97;;;2.78;;
64873;SDS011;51367;45.204;38.576;2022-12-20T06:29:02;1.10;;;1.10;;
64873;SDS011;51367;45.204;38.576;2022-12-20T06:31:39;4.25;;;2.78;;
64873;SDS011;51367;45.204;38.576;2022-12-20T06:34:05;6.78;;;4.90;;
64873;SDS011;51367;45.204;38.576;2022-12-20T06:36:36;1.50;;;1.40;;
64873;SDS011;51367;45.204;38.576;2022-12-20T06:39:02;2.08;;;1.98;;
64873;SDS011;51367;45.204;38.576;2022-12-20T06:41:29;6.55;;;5.22;;
64873;SDS011;51367;45.204;38.576;2022-12-20T06:43:55;3.30;;;3.10;;
64873;SDS011;51367;45.204;38.576;2022-12-20T06:46:21;2.67;;;2.47;;
64873;SDS011;51367;45.204;38.576;2022-12-20T06:48:48;6.88;;;3.25;;
64873;SDS011;51367;45.204;38.576;2022-12-20T06:51:15;3.67;;;3.35;;
64873;SDS011;51367;45.204;38.576;2022-12-20T06:53:41;5.43;;;4.22;;
64873;SDS011;51367;45.204;38.576;2022-12-20T06:56:08;7.65;;;3.95;;
64873;SDS011;51367;45.204;38.576;2022-12-20T06:58:34;7.50;;;3.55;;
64873;SDS011;51367;45.204;38.576;2022-12-20T07:01:01;3.42;;;3.17;;
64873;SDS011;51367;45.204;38.576;2022-12-20T07:03:27;3.58;;;3.25;;
64873;SDS011;51367;45.204;38.576;2022-12-20T07:05:53;2.58;;;2.40;;
64873;SDS011;51367;45.204;38.576;2022-12-20T07:08:20;5.45;;;4.68;;
64873;SDS011;51367;45.204;38.576;2022-12-20T07:10:47;3.47;;;3.13;;
64873;SDS011;51367;45.204;38.576;2022-12-20T07:13:13;15.27;;;4.28;;
64873;SDS011;51367;45.204;38.576;2022-12-20T07:15:39;5.18;;;4.57;;
64873;SDS011;51367;45.204;38.576;2022-12-20T07:18:05;5.32;;;4.25;;
64873;SDS011;51367;45.204;38.576;2022-12-20T07:20:31;5.75;;;4.15;;
64873;SDS011;51367;45.204;38.576;2022-12-20T07:22:57;7.70;;;4.90;;
64873;SDS011;51367;45.204;38.576;2022-12-20T07:25:24;8.05;;;5.60;;
64873;SDS011;51367;45.204;38.576;2022-12-20T07:27:50;5.05;;;4.55;;
64873;SDS011;51367;45.204;38.576;2022-12-20T07:30:16;2.75;;;2.42;;
64873;SDS011;51367;45.204;38.576;2022-12-20T07:32:43;3.53;;;3.22;;
64873;SDS011;51367;45.204;38.576;2022-12-20T07:35:10;4.30;;;3.90;;
64873;SDS011;51367;45.204;38.576;2022-12-20T07:37:37;6.07;;;5.28;;
64873;SDS011;51367;45.204;38.576;2022-12-20T07:40:03;5.70;;;5.03;;
64873;SDS011;51367;45.204;38.576;2022-12-20T07:42:30;5.43;;;3.80;;
64873;SDS011;51367;45.204;38.576;2022-12-20T07:44:56;6.65;;;5.97;;
64873;SDS011;51367;45.204;38.576;2022-12-20T07:47:22;6.80;;;6.13;;
64873;SDS011;51367;45.204;38.576;2022-12-20T07:49:48;6.00;;;5.15;;
64873;SDS011;51367;45.204;38.576;2022-12-20T07:52:13;3.47;;;3.17;;
64873;SDS011;51367;45.204;38.576;2022-12-20T07:54:46;4.45;;;3.58;;
64873;SDS011;51367;45.204;38.576;2022-12-20T07:57:22;7.38;;;5.93;;
64873;SDS011;51367;45.204;38.576;2022-12-20T07:59:55;3.33;;;3.05;;
64873;SDS011;51367;45.204;38.576;2022-12-20T08:02:29;5.55;;;4.18;;
64873;SDS011;51367;45.204;38.576;2022-12-20T08:04:59;7.47;;;5.22;;
64873;SDS011;51367;45.204;38.576;2022-12-20T08:07:27;9.25;;;6.97;;
64873;SDS011;51367;45.204;38.576;2022-12-20T08:09:54;3.83;;;3.47;;
64873;SDS011;51367;45.204;38.576;2022-12-20T08:12:20;4.22;;;3.88;;
64873;SDS011;51367;45.204;38.576;2022-12-20T15:58:19;1.35;;;1.25;;
64873;SDS011;51367;45.204;38.576;2022-12-20T16:00:45;14.02;;;1.95;;
64873;SDS011;51367;45.204;38.576;2022-12-20T16:03:13;3.70;;;3.03;;
64873;SDS011;51367;45.204;38.576;2022-12-20T16:05:47;2.53;;;2.33;;
64873;SDS011;51367;45.204;38.576;2022-12-20T16:08:16;3.80;;;3.05;;
64873;SDS011;51367;45.204;38.576;2022-12-20T16:10:45;2.35;;;2.20;;
64873;SDS011;51367;45.204;38.576;2022-12-20T16:13:13;2.47;;;2.28;;
64873;SDS011;51367;45.204;38.576;2022-12-20T16:15:41;3.88;;;3.30;;
64873;SDS011;51367;45.204;38.576;2022-12-20T16:18:07;3.70;;;3.38;;
64873;SDS011;51367;45.204;38.576;2022-12-20T16:20:34;3.05;;;2.83;;
64873;SDS011;51367;45.204;38.576;2022-12-20T16:23:00;2.92;;;2.72;;
64873;SDS011;51367;45.204;38.576;2022-12-20T16:25:29;4.60;;;4.07;;
64873;SDS011;51367;45.204;38.576;2022-12-20T16:27:56;3.53;;;3.22;;
64873;SDS011;51367;45.204;38.576;2022-12-20T16:30:23;3.60;;;3.33;;
64873;SDS011;51367;45.204;38.576;2022-12-20T16:32:49;3.88;;;3.45;;
64873;SDS011;51367;45.204;38.576;2022-12-20T16:35:21;3.38;;;3.10;;
64873;SDS011;51367;45.204;38.576;2022-12-20T16:37:49;5.07;;;4.65;;
64873;SDS011;51367;45.204;38.576;2022-12-20T16:40:15;25.13;;;4.47;;
64873;SDS011;51367;45.204;38.576;2022-12-20T16:42:41;4.50;;;3.78;;
64873;SDS011;51367;45.204;38.576;2022-12-20T16:45:16;4.53;;;3.00;;
64873;SDS011;51367;45.204;38.576;2022-12-20T16:47:47;4.00;;;3.70;;
64873;SDS011;51367;45.204;38.576;2022-12-20T16:50:14;6.65;;;3.00;;
64873;SDS011;51367;45.204;38.576;2022-12-20T16:52:40;3.35;;;2.70;;
64873;SDS011;51367;45.204;38.576;2022-12-20T16:55:14;3.67;;;3.40;;
64873;SDS011;51367;45.204;38.576;2022-12-20T16:57:47;3.65;;;3.33;;
64873;SDS011;51367;45.204;38.576;2022-12-20T17:00:21;3.90;;;3.45;;
64873;SDS011;51367;45.204;38.576;2022-12-20T17:02:49;4.97;;;3.72;;
64873;SDS011;51367;45.204;38.576;2022-12-20T17:05:19;3.10;;;1.92;;
64873;SDS011;51367;45.204;38.576;2022-12-20T17:07:45;1.60;;;1.50;;
64873;SDS011;51367;45.204;38.576;2022-12-20T17:10:10;3.13;;;2.92;;
64873;SDS011;51367;45.204;38.576;2022-12-20T17:12:36;3.40;;;3.08;;
64873;SDS011;51367;45.204;38.576;2022-12-20T17:15:04;3.67;;;3.38;;
64873;SDS011;51367;45.204;38.576;2022-12-20T17:17:30;3.03;;;2.80;;
64873;SDS011;51367;45.204;38.576;2022-12-20T17:19:56;2.60;;;2.40;;
64873;SDS011;51367;45.204;38.576;2022-12-20T17:22:23;4.20;;;3.33;;
64873;SDS011;51367;45.204;38.576;2022-12-20T17:24:49;2.00;;;1.90;;
64873;SDS011;51367;45.204;38.576;2022-12-20T17:27:18;7.10;;;2.63;;
64873;SDS011;51367;45.204;38.576;2022-12-20T17:29:44;2.30;;;2.20;;
64873;SDS011;51367;45.204;38.576;2022-12-20T17:32:20;2.50;;;1.67;;
64873;SDS011;51367;45.204;38.576;2022-12-20T17:34:48;2.30;;;2.17;;
64873;SDS011;51367;45.204;38.576;2022-12-20T17:37:14;3.28;;;1.83;;
64873;SDS011;51367;45.204;38.576;2022-12-20T17:39:42;3.95;;;2.63;;
64873;SDS011;51367;45.204;38.576;2022-12-20T17:42:08;2.55;;;2.35;;
64873;SDS011;51367;45.204;38.576;2022-12-20T17:44:37;3.13;;;2.85;;
64873;SDS011;51367;45.204;38.576;2022-12-20T17:47:03;4.75;;;4.25;;
64873;SDS011;51367;45.204;38.576;2022-12-20T17:49:29;1.90;;;1.63;;
64873;SDS011;51367;45.204;38.576;2022-12-20T17:51:55;3.38;;;3.08;;
64873;SDS011;51367;45.204;38.576;2022-12-20T17:54:22;2.55;;;2.40;;
64873;SDS011;51367;45.204;38.576;2022-12-20T17:56:50;3.15;;;2.85;;
64873;SDS011;51367;45.204;38.576;2022-12-20T17:59:19;2.05;;;1.60;;
64873;SDS011;51367;45.204;38.576;2022-12-20T18:01:46;4.55;;;2.72;;
64873;SDS011;51367;45.204;38.576;2022-12-20T18:04:13;2.63;;;2.42;;
64873;SDS011;51367;45.204;38.576;2022-12-20T18:06:41;2.53;;;2.33;;
64873;SDS011;51367;45.204;38.576;2022-12-20T18:09:16;1.70;;;1.60;;
64873;SDS011;51367;45.204;38.576;2022-12-20T18:11:46;1.75;;;1.65;;
64873;SDS011;51367;45.204;38.576;2022-12-20T18:14:12;0.50;;;0.50;;
64873;SDS011;51367;45.204;38.576;2022-12-20T18:16:39;1.38;;;1.27;;
64873;SDS011;51367;45.204;38.576;2022-12-20T18:19:05;1.17;;;1.17;;
64873;SDS011;51367;45.204;38.576;2022-12-20T18:21:32;1.73;;;1.63;;
64873;SDS011;51367;45.204;38.576;2022-12-20T18:23:59;2.17;;;2.08;;
64873;SDS011;51367;45.204;38.576;2022-12-20T18:26:27;2.33;;;2.03;;
64873;SDS011;51367;45.204;38.576;2022-12-20T18:28:58;2.50;;;2.30;;
64873;SDS011;51367;45.204;38.576;2022-12-20T18:31:26;3.87;;;2.40;;
64873;SDS011;51367;45.204;38.576;2022-12-20T18:33:55;3.47;;;3.28;;
64873;SDS011;51367;45.204;38.576;2022-12-20T18:36:23;5.20;;;4.80;;
64873;SDS011;51367;45.204;38.576;2022-12-20T18:39:02;13.85;;;3.75;;
64873;SDS011;51367;45.204;38.576;2022-12-20T18:41:30;3.88;;;3.15;;
64873;SDS011;51367;45.204;38.576;2022-12-20T18:43:58;6.80;;;6.18;;
64873;SDS011;51367;45.204;38.576;2022-12-20T18:46:25;16.73;;;5.78;;
64873;SDS011;51367;45.204;38.576;2022-12-20T18:48:55;6.13;;;4.18;;
64873;SDS011;51367;45.204;38.576;2022-12-20T18:51:23;8.40;;;5.78;;
64873;SDS011;51367;45.204;38.576;2022-12-20T18:53:54;6.93;;;5.43;;
64873;SDS011;51367;45.204;38.576;2022-12-20T18:56:22;8.55;;;6.32;;
64873;SDS011;51367;45.204;38.576;2022-12-20T18:58:50;8.80;;;4.43;;
64873;SDS011;51367;45.204;38.576;2022-12-20T19:01:21;3.35;;;3.13;;
64873;SDS011;51367;45.204;38.576;2022-12-20T19:03:55;12.95;;;3.63;;
64873;SDS011;51367;45.204;38.576;2022-12-20T19:06:22;6.13;;;4.15;;
64873;SDS011;51367;45.204;38.576;2022-12-20T19:08:49;4.88;;;3.83;;
64873;SDS011;51367;45.204;38.576;2022-12-20T19:11:16;5.82;;;4.22;;
64873;SDS011;51367;45.204;38.576;2022-12-20T19:13:45;7.78;;;5.10;;
64873;SDS011;51367;45.204;38.576;2022-12-20T19:16:13;4.90;;;4.13;;
64873;SDS011;51367;45.204;38.576;2022-12-20T19:18:46;26.38;;;3.45;;
64873;SDS011;51367;45.204;38.576;2022-12-20T19:21:13;7.18;;;4.28;;
64873;SDS011;51367;45.204;38.576;2022-12-20T19:23:42;11.68;;;10.60;;
64873;SDS011;51367;45.204;38.576;2022-12-20T19:26:10;6.10;;;5.35;;
64873;SDS011;51367;45.204;38.576;2022-12-20T19:28:37;9.10;;;5.43;;
64873;SDS011;51367;45.204;38.576;2022-12-20T19:31:04;5.80;;;5.28;;
64873;SDS011;51367;45.204;38.576;2022-12-20T19:33:39;15.73;;;4.97;;
64873;SDS011;51367;45.204;38.576;2022-12-20T19:36:16;2.83;;;2.55;;
64873;SDS011;51367;45.204;38.576;2022-12-20T19:38:45;3.05;;;2.78;;
64873;SDS011;51367;45.204;38.576;2022-12-20T19:41:13;3.45;;;3.17;;
64873;SDS011;51367;45.204;38.576;2022-12-20T19:43:39;4.90;;;4.38;;
64873;SDS011;51367;45.204;38.576;2022-12-20T19:46:06;11.23;;;8.68;;
64873;SDS011;51367;45.204;38.576;2022-12-20T19:48:32;7.47;;;6.88;;
64873;SDS011;51367;45.204;38.576;2022-12-20T19:51:05;4.40;;;4.07;;
64873;SDS011;51367;45.204;38.576;2022-12-20T19:53:36;6.05;;;5.45;;
64873;SDS011;51367;45.204;38.576;2022-12-20T19:56:03;3.65;;;3.42;;
64873;SDS011;51367;45.204;38.576;2022-12-20T19:58:30;5.13;;;4.70;;
64873;SDS011;51367;45.204;38.576;2022-12-20T20:00:56;6.82;;;4.28;;
64873;SDS011;51367;45.204;38.576;2022-12-20T20:03:22;2.88;;;1.90;;
64873;SDS011;51367;45.204;38.576;2022-12-20T20:05:48;3.45;;;2.97;;
64873;SDS011;51367;45.204;38.576;2022-12-20T20:08:14;2.22;;;2.13;;
64873;SDS011;51367;45.204;38.576;2022-12-20T20:10:41;4.57;;;4.25;;
64873;SDS011;51367;45.204;38.576;2022-12-20T20:13:07;2.95;;;2.70;;
64873;SDS011;51367;45.204;38.576;2022-12-20T20:15:33;5.10;;;3.72;;
64873;SDS011;51367;45.204;38.576;2022-12-20T20:17:59;2.00;;;1.90;;
64873;SDS011;51367;45.204;38.576;2022-12-20T20:20:25;3.17;;;2.97;;
64873;SDS011;51367;45.204;38.576;2022-12-20T20:22:52;3.25;;;2.95;;
64873;SDS011;51367;45.204;38.576;2022-12-20T20:25:18;3.58;;;2.33;;
64873;SDS011;51367;45.204;38.576;2022-12-20T20:27:44;3.35;;;3.08;;
64873;SDS011;51367;45.204;38.576;2022-12-20T20:30:11;4.30;;;3.90;;
64873;SDS011;51367;45.204;38.576;2022-12-20T20:32:39;4.43;;;4.03;;
64873;SDS011;51367;45.204;38.576;2022-12-20T20:35:06;2.13;;;1.95;;
64873;SDS011;51367;45.204;38.576;2022-12-20T20:37:35;1.92;;;1.83;;
64873;SDS011;51367;45.204;38.576;2022-12-20T20:40:02;5.10;;;2.65;;
64873;SDS011;51367;45.204;38.576;2022-12-20T20:42:29;1.73;;;1.63;;
64873;SDS011;51367;45.204;38.576;2022-12-20T20:44:55;0.77;;;0.77;;
64873;SDS011;51367;45.204;38.576;2022-12-20T20:47:21;0.95;;;0.88;;
64873;SDS011;51367;45.204;38.576;2022-12-20T20:49:47;4.05;;;3.67;;
64873;SDS011;51367;45.204;38.576;2022-12-20T20:52:13;5.60;;;2.83;;
64873;SDS011;51367;45.204;38.576;2022-12-20T20:54:39;1.13;;;0.68;;
64873;SDS011;51367;45.204;38.576;2022-12-20T20:57:04;3.90;;;2.30;;
64873;SDS011;51367;45.204;38.576;2022-12-20T20:59:30;0.95;;;0.95;;
64873;SDS011;51367;45.204;38.576;2022-12-20T21:01:56;1.63;;;1.27;;
64873;SDS011;51367;45.204;38.576;2022-12-20T21:04:22;2.25;;;2.15;;
64873;SDS011;51367;45.204;38.576;2022-12-20T21:06:48;3.63;;;2.97;;
64873;SDS011;51367;45.204;38.576;2022-12-20T21:09:14;2.60;;;2.40;;
64873;SDS011;51367;45.204;38.576;2022-12-20T21:11:40;2.33;;;2.22;;
64873;SDS011;51367;45.204;38.576;2022-12-20T21:14:06;2.25;;;2.10;;
64873;SDS011;51367;45.204;38.576;2022-12-20T21:16:32;2.15;;;1.95;;
64873;SDS011;51367;45.204;38.576;2022-12-20T21:18:58;1.58;;;1.48;;
64873;SDS011;51367;45.204;38.576;2022-12-20T21:21:24;2.67;;;2.20;;
64873;SDS011;51367;45.204;38.576;2022-12-20T21:23:51;1.98;;;1.90;;
64873;SDS011;51367;45.204;38.576;2022-12-20T21:26:19;2.25;;;2.05;;
64873;SDS011;51367;45.204;38.576;2022-12-20T21:28:46;4.13;;;2.72;;
64873;SDS011;51367;45.204;38.576;2022-12-20T21:31:13;1.63;;;1.48;;
64873;SDS011;51367;45.204;38.576;2022-12-20T21:33:41;17.92;;;2.72;;
64873;SDS011;51367;45.204;38.576;2022-12-20T21:36:09;2.65;;;2.53;;
64873;SDS011;51367;45.204;38.576;2022-12-20T21:38:38;1.67;;;1.58;;
64873;SDS011;51367;45.204;38.576;2022-12-20T21:41:05;8.80;;;2.85;;
64873;SDS011;51367;45.204;38.576;2022-12-20T21:43:39;2.58;;;2.38;;
64873;SDS011;51367;45.204;38.576;2022-12-20T21:46:05;1.58;;;1.48;;
64873;SDS011;51367;45.204;38.576;2022-12-20T21:48:36;5.03;;;2.42;;
64873;SDS011;51367;45.204;38.576;2022-12-20T21:51:06;1.10;;;1.10;;
64873;SDS011;51367;45.204;38.576;2022-12-20T21:53:34;1.75;;;1.52;;
64873;SDS011;51367;45.204;38.576;2022-12-20T21:56:02;2.55;;;2.35;;
64873;SDS011;51367;45.204;38.576;2022-12-20T21:58:28;3.60;;;1.70;;
64873;SDS011;51367;45.204;38.576;2022-12-20T22:00:55;3.25;;;2.33;;
64873;SDS011;51367;45.204;38.576;2022-12-20T22:03:22;2.08;;;1.98;;
64873;SDS011;51367;45.204;38.576;2022-12-20T22:05:49;1.88;;;1.77;;
64873;SDS011;51367;45.204;38.576;2022-12-20T22:08:17;7.95;;;1.80;;
64873;SDS011;51367;45.204;38.576;2022-12-20T22:10:43;5.20;;;3.45;;
64873;SDS011;51367;45.204;38.576;2022-12-20T22:13:10;13.25;;;9.00;;
64873;SDS011;51367;45.204;38.576;2022-12-20T22:15:36;2.28;;;2.13;;
64873;SDS011;51367;45.204;38.576;2022-12-20T22:18:03;6.30;;;3.53;;
64873;SDS011;51367;45.204;38.576;2022-12-20T22:20:30;29.33;;;13.07;;
64873;SDS011;51367;45.204;38.576;2022-12-20T22:22:56;10.30;;;7.80;;
64873;SDS011;51367;45.204;38.576;2022-12-20T22:25:22;5.90;;;4.43;;
64873;SDS011;51367;45.204;38.576;2022-12-20T22:27:48;2.72;;;2.42;;
64873;SDS011;51367;45.204;38.576;2022-12-20T22:30:15;6.28;;;3.50;;
64873;SDS011;51367;45.204;38.576;2022-12-20T22:32:41;2.28;;;2.08;;
64873;SDS011;51367;45.204;38.576;2022-12-20T22:35:07;19.10;;;4.90;;
64873;SDS011;51367;45.204;38.576;2022-12-20T22:37:33;7.65;;;5.35;;
64873;SDS011;51367;45.204;38.576;2022-12-20T22:39:59;7.43;;;4.65;;
64873;SDS011;51367;45.204;38.576;2022-12-20T22:42:25;4.13;;;3.83;;
64873;SDS011;51367;45.204;38.576;2022-12-20T22:44:51;8.38;;;5.50;;
64873;SDS011;51367;45.204;38.576;2022-12-20T22:47:18;11.23;;;4.82;;
64873;SDS011;51367;45.204;38.576;2022-12-20T22:49:44;7.07;;;3.65;;